Time;durP1;ratioP1;P1;durP2;ratioP2;P2;SDS_P1;SDS_P2;PMS_P1;PMS_P2;Temp;Humidity;BMP_temperature;BMP_pressure;BME280_temperature;BME280_humidity;BME280_pressure;Samples;Min_cycle;Max_cycle;Signal;HPM_P1;HPM_P2
2023/06/12 00:01:14;;;;;;;13.20;9.70;;;;;;;40.21;34.24;101315.03;4972161;28;20422;-83
2023/06/12 00:03:42;;;;;;;22.53;9.90;;;;;;;40.19;34.26;101316.44;4973469;28;20454;-83
2023/06/12 00:06:09;;;;;;;20.37;10.33;;;;;;;40.22;34.61;101308.47;4972031;28;20430;-81
2023/06/12 00:08:41;;;;;;;23.13;9.37;;;;;;;40.22;34.55;101297.63;4971751;28;20552;-83
2023/06/12 00:11:09;;;;;;;25.57;11.67;;;;;;;40.27;34.67;101307.56;4971867;28;20453;-83
2023/06/12 00:13:46;;;;;;;23.07;12.23;;;;;;;40.13;34.58;101310.34;4971874;28;20453;-81
2023/06/12 00:16:12;;;;;;;22.17;11.27;;;;;;;40.22;34.07;101299.53;4971867;28;20930;-82
2023/06/12 00:18:38;;;;;;;16.07;10.47;;;;;;;40.19;34.45;101309.09;4955631;28;20453;-81
2023/06/12 00:21:09;;;;;;;16.43;9.80;;;;;;;40.23;34.79;101320.16;4957451;28;20936;-81
2023/06/12 00:23:40;;;;;;;16.70;10.20;;;;;;;40.21;34.73;101306.09;4976636;28;20445;-82
2023/06/12 00:26:06;;;;;;;18.70;11.63;;;;;;;40.14;34.36;101301.06;4976937;28;20407;-82
2023/06/12 00:28:32;;;;;;;26.37;11.10;;;;;;;40.15;35.30;101291.81;4959091;28;20457;-82
2023/06/12 00:30:59;;;;;;;27.97;12.97;;;;;;;40.17;34.77;101289.59;4958966;28;20477;-82
2023/06/12 00:33:25;;;;;;;26.27;11.13;;;;;;;40.06;35.15;101287.44;4959016;28;20423;-81
2023/06/12 00:35:52;;;;;;;19.70;12.10;;;;;;;40.08;34.89;101286.00;4976206;28;20470;-82
2023/06/12 00:38:20;;;;;;;20.73;10.93;;;;;;;40.15;34.55;101285.59;4958823;28;20455;-82
2023/06/12 00:40:46;;;;;;;22.97;11.10;;;;;;;39.99;34.74;101285.13;4976577;28;20402;-81
2023/06/12 00:43:12;;;;;;;19.63;10.23;;;;;;;39.92;34.66;101280.16;4958671;28;20488;-81
2023/06/12 00:45:38;;;;;;;16.80;9.57;;;;;;;39.88;34.90;101281.06;4958822;28;20942;-82
2023/06/12 00:48:05;;;;;;;14.67;9.03;;;;;;;40.05;34.73;101275.78;4974931;28;20835;-82
2023/06/12 00:50:33;;;;;;;24.83;11.07;;;;;;;39.89;34.83;101285.38;4974809;28;20426;-81
2023/06/12 00:53:00;;;;;;;18.90;9.37;;;;;;;40.03;35.19;101273.34;4976296;28;20426;-81
2023/06/12 00:55:29;;;;;;;25.10;11.57;;;;;;;40.00;34.88;101275.88;4976228;28;20407;-81
2023/06/12 00:57:55;;;;;;;15.00;10.83;;;;;;;39.72;35.47;101273.31;4958745;28;20443;-81
2023/06/12 01:00:21;;;;;;;15.60;9.67;;;;;;;39.92;35.14;101257.63;4974483;28;20426;-81
2023/06/12 01:02:53;;;;;;;20.07;10.53;;;;;;;40.00;34.55;101254.13;4958784;28;20415;-81
2023/06/12 01:05:22;;;;;;;23.20;12.43;;;;;;;40.02;34.45;101249.19;4958441;28;20501;-81
2023/06/12 01:07:58;;;;;;;24.13;10.77;;;;;;;40.09;34.64;101248.78;4958298;28;20469;-81
2023/06/12 01:10:37;;;;;;;18.00;11.50;;;;;;;40.15;34.39;101242.09;4974327;28;20425;-83
2023/06/12 01:13:04;;;;;;;24.40;12.13;;;;;;;40.13;34.57;101247.03;4974366;28;20465;-83
2023/06/12 01:15:30;;;;;;;19.73;12.23;;;;;;;40.13;34.06;101250.56;4958048;28;20430;-81
2023/06/12 01:17:58;;;;;;;25.63;10.50;;;;;;;40.01;34.27;101253.00;4958239;28;20994;-81
2023/06/12 01:20:24;;;;;;;16.40;10.53;;;;;;;40.04;34.16;101249.72;4974223;28;20574;-83
2023/06/12 01:23:05;;;;;;;22.70;9.37;;;;;;;40.13;34.11;101247.84;4958070;28;20430;-83
2023/06/12 01:25:49;;;;;;;25.07;10.83;;;;;;;40.24;33.95;101254.59;4975749;28;20482;-82
2023/06/12 01:28:33;;;;;;;17.03;11.23;;;;;;;40.17;33.93;101246.09;4957978;28;20458;-81
2023/06/12 01:31:18;;;;;;;18.77;10.03;;;;;;;40.22;34.02;101253.31;4975386;28;20430;-81
2023/06/12 01:33:54;;;;;;;21.83;10.87;;;;;;;40.31;34.13;101245.19;4975422;28;20513;-81
2023/06/12 01:36:25;;;;;;;19.30;8.47;;;;;;;40.26;33.71;101236.06;4957689;28;21044;-81
2023/06/12 01:38:58;;;;;;;18.10;10.00;;;;;;;40.20;34.00;101237.31;4973807;28;20426;-81
2023/06/12 01:41:28;;;;;;;25.37;11.43;;;;;;;40.11;34.40;101233.78;4973860;28;20426;-81
2023/06/12 01:43:54;;;;;;;18.17;9.63;;;;;;;40.22;34.21;101223.44;4973837;28;20430;-81
2023/06/12 01:46:20;;;;;;;30.17;11.30;;;;;;;40.21;34.17;101221.84;4973603;28;20422;-80
2023/06/12 01:48:45;;;;;;;25.53;11.20;;;;;;;40.09;34.65;101227.06;4973868;28;20494;-81
2023/06/12 01:51:11;;;;;;;18.60;10.20;;;;;;;40.26;33.94;101227.09;4973611;28;20241;-81
2023/06/12 01:53:37;;;;;;;23.20;12.30;;;;;;;40.18;34.68;101222.44;4973557;28;20428;-81
2023/06/12 01:56:03;;;;;;;20.60;10.40;;;;;;;39.87;34.31;101230.56;4973539;28;20206;-81
2023/06/12 01:58:29;;;;;;;22.83;10.03;;;;;;;40.06;34.53;101227.66;4973488;28;20864;-81
2023/06/12 02:00:55;;;;;;;21.10;9.50;;;;;;;40.05;35.04;101226.06;4973438;28;20432;-81
2023/06/12 02:03:22;;;;;;;22.27;10.60;;;;;;;40.21;34.42;101222.63;4973284;28;20674;-80
2023/06/12 02:05:49;;;;;;;23.50;10.27;;;;;;;40.07;34.21;101218.41;4973409;28;21004;-80
2023/06/12 02:08:15;;;;;;;23.17;11.47;;;;;;;40.06;35.12;101217.59;4973052;28;20458;-81
2023/06/12 02:10:41;;;;;;;17.80;9.60;;;;;;;40.15;34.68;101221.16;4957228;28;20477;-81
2023/06/12 02:13:07;;;;;;;19.97;10.20;;;;;;;40.11;34.42;101213.94;4973201;28;20174;-81
2023/06/12 02:15:34;;;;;;;16.10;9.97;;;;;;;40.09;34.82;101219.69;4973063;28;20497;-81
2023/06/12 02:18:01;;;;;;;23.57;12.23;;;;;;;40.08;34.58;101220.00;4973481;28;20426;-81
2023/06/12 02:20:27;;;;;;;19.40;10.77;;;;;;;39.92;34.81;101222.28;4973179;28;20808;-81
2023/06/12 02:22:52;;;;;;;25.83;11.50;;;;;;;40.00;34.58;101213.38;4957021;28;20430;-81
2023/06/12 02:25:18;;;;;;;27.37;11.60;;;;;;;39.97;34.39;101222.16;4973368;28;20425;-81
2023/06/12 02:27:44;;;;;;;19.37;10.30;;;;;;;40.07;34.22;101215.69;4972939;28;20286;-81
2023/06/12 02:30:11;;;;;;;19.33;10.77;;;;;;;40.16;33.81;101217.34;4973081;28;20529;-81
2023/06/12 02:32:38;;;;;;;22.00;11.40;;;;;;;39.96;34.84;101215.09;4973194;28;20183;-81
2023/06/12 02:35:08;;;;;;;14.00;11.20;;;;;;;40.08;34.74;101225.44;4972715;28;20926;-81
2023/06/12 02:37:35;;;;;;;15.70;9.60;;;;;;;40.11;34.32;101216.66;4972967;28;20418;-81
2023/06/12 02:40:01;;;;;;;19.37;11.77;;;;;;;40.20;33.98;101210.13;4956716;28;20947;-81
2023/06/12 02:42:30;;;;;;;20.03;10.03;;;;;;;40.18;34.67;101206.13;4972814;28;20422;-80
2023/06/12 02:44:56;;;;;;;24.40;10.90;;;;;;;40.21;33.82;101202.81;4956383;28;20430;-81
2023/06/12 02:47:21;;;;;;;27.93;11.60;;;;;;;40.04;34.10;101200.81;4956700;28;20465;-81
2023/06/12 02:49:48;;;;;;;21.90;9.30;;;;;;;39.96;33.96;101206.97;4956918;28;20221;-81
2023/06/12 02:52:13;;;;;;;22.43;11.27;;;;;;;39.99;34.47;101204.44;4972836;28;20682;-80
2023/06/12 02:54:39;;;;;;;16.50;10.70;;;;;;;40.00;34.07;101210.66;4956754;28;20433;-81
2023/06/12 02:57:06;;;;;;;18.43;10.27;;;;;;;39.82;34.34;101203.53;4956563;28;20422;-81
2023/06/12 02:59:32;;;;;;;23.13;10.43;;;;;;;39.66;34.86;101203.94;4956463;28;20269;-81
2023/06/12 03:01:58;;;;;;;29.23;12.83;;;;;;;39.83;34.52;101203.22;4957074;28;20418;-81
2023/06/12 03:04:27;;;;;;;21.83;10.00;;;;;;;39.93;34.19;101204.88;4956428;28;20780;-81
2023/06/12 03:06:53;;;;;;;16.70;9.27;;;;;;;39.89;34.54;101201.97;4973978;28;20506;-81
2023/06/12 03:09:23;;;;;;;25.80;11.47;;;;;;;39.51;35.01;101201.56;4956494;28;20538;-81
2023/06/12 03:11:51;;;;;;;15.13;10.07;;;;;;;39.74;34.50;101205.91;4972423;28;20492;-80
2023/06/12 03:14:21;;;;;;;31.07;11.63;;;;;;;39.99;34.54;101200.91;4974105;28;20415;-80
2023/06/12 03:16:48;;;;;;;18.70;11.20;;;;;;;39.94;34.70;101190.19;4973696;28;20437;-81
2023/06/12 03:19:14;;;;;;;20.93;12.90;;;;;;;40.00;34.88;101202.50;4956281;28;20880;-81
2023/06/12 03:21:40;;;;;;;23.07;10.50;;;;;;;39.75;34.87;101201.25;4972363;28;20426;-81
2023/06/12 03:24:06;;;;;;;23.60;10.20;;;;;;;39.85;34.84;101198.28;4974466;28;20406;-81
2023/06/12 03:26:33;;;;;;;27.33;12.50;;;;;;;39.91;34.32;101197.06;4956098;28;20549;-81
2023/06/12 03:29:03;;;;;;;24.20;11.50;;;;;;;39.95;34.35;101199.94;4956149;28;21147;-82
2023/06/12 03:31:30;;;;;;;24.87;11.10;;;;;;;39.77;34.74;101204.47;4956409;28;20930;-81
2023/06/12 03:33:56;;;;;;;21.13;11.50;;;;;;;39.68;34.20;101204.44;4956089;28;20426;-81
2023/06/12 03:36:28;;;;;;;14.80;9.30;;;;;;;39.83;33.93;101210.56;4971958;28;20522;-81
2023/06/12 03:38:55;;;;;;;23.73;10.87;;;;;;;39.94;34.02;101217.34;4956210;28;20414;-81
2023/06/12 03:41:21;;;;;;;25.93;10.40;;;;;;;39.96;34.04;101215.09;4955922;28;20924;-81
2023/06/12 03:43:48;;;;;;;19.60;12.30;;;;;;;40.03;34.75;101224.44;4956181;28;20931;-81
2023/06/12 03:46:14;;;;;;;19.77;10.27;;;;;;;39.93;34.49;101224.69;4973700;28;20407;-81
2023/06/12 03:48:40;;;;;;;19.90;9.70;;;;;;;40.02;34.73;101227.44;4955991;28;20505;-81
2023/06/12 03:51:06;;;;;;;21.00;10.97;;;;;;;40.00;34.54;101226.97;4972155;28;20422;-81
2023/06/12 03:53:32;;;;;;;22.57;13.23;;;;;;;39.91;34.19;101228.84;4972042;28;20437;-81
2023/06/12 03:55:58;;;;;;;16.73;10.23;;;;;;;39.95;34.67;101227.88;4957445;28;20461;-81
2023/06/12 03:58:24;;;;;;;22.70;10.40;;;;;;;39.69;34.32;101237.81;4977309;28;20398;-81
2023/06/12 04:00:50;;;;;;;15.80;8.90;;;;;;;39.99;34.33;101244.38;4977270;28;20159;-81
2023/06/12 04:03:21;;;;;;;19.27;10.60;;;;;;;40.06;34.04;101242.06;4959607;28;20433;-81
2023/06/12 04:05:50;;;;;;;18.63;11.43;;;;;;;40.07;34.37;101246.38;4959527;28;20452;-81
2023/06/12 04:08:16;;;;;;;19.60;10.20;;;;;;;39.99;34.54;101245.19;4959367;28;20457;-82
2023/06/12 04:10:43;;;;;;;21.77;10.03;;;;;;;40.07;34.01;101259.16;4959422;28;20418;-81
2023/06/12 04:13:09;;;;;;;22.23;9.23;;;;;;;39.99;34.50;101253.34;4975553;28;20432;-81
2023/06/12 04:15:36;;;;;;;19.23;10.57;;;;;;;40.12;34.47;101253.59;4976947;28;21925;-81
2023/06/12 04:18:04;;;;;;;24.23;12.17;;;;;;;39.98;34.23;101259.09;4977277;28;20394;-81
2023/06/12 04:20:32;;;;;;;20.47;10.20;;;;;;;40.00;34.09;101257.66;4975438;28;20914;-81
2023/06/12 04:22:58;;;;;;;21.03;10.23;;;;;;;40.02;33.95;101265.47;4975309;28;20569;-81
2023/06/12 04:25:27;;;;;;;19.97;10.63;;;;;;;39.94;34.02;101263.53;4976839;28;20418;-81
2023/06/12 04:27:53;;;;;;;18.00;9.73;;;;;;;39.94;34.29;101253.47;4959429;28;20497;-80
2023/06/12 04:30:21;;;;;;;31.47;11.70;;;;;;;39.80;34.48;101263.59;4959542;28;20461;-81
2023/06/12 04:32:48;;;;;;;31.93;13.60;;;;;;;39.83;34.64;101268.41;4959277;28;20961;-81
2023/06/12 04:35:19;;;;;;;14.57;10.30;;;;;;;39.83;34.39;101268.41;4976434;28;20470;-81
2023/06/12 04:37:48;;;;;;;20.70;10.20;;;;;;;39.88;34.37;101259.34;4976749;28;20406;-81
2023/06/12 04:40:20;;;;;;;18.30;9.07;;;;;;;40.06;33.47;101258.34;4974940;28;20426;-80
2023/06/12 04:42:46;;;;;;;25.37;12.00;;;;;;;39.79;33.71;101263.94;4975107;28;20570;-81
2023/06/12 04:45:13;;;;;;;18.80;10.33;;;;;;;40.01;33.58;101259.25;4943534;28;20407;-81
2023/06/12 04:47:42;;;;;;;13.70;9.97;;;;;;;39.94;33.75;101258.09;4974827;28;20462;-81
2023/06/12 04:50:10;;;;;;;22.00;11.80;;;;;;;39.69;34.13;101265.75;4958658;28;20847;-80
2023/06/12 04:52:36;;;;;;;23.87;11.40;;;;;;;39.88;34.39;101268.28;4958853;28;20521;-81
2023/06/12 04:55:08;;;;;;;29.10;14.20;;;;;;;40.00;34.72;101270.44;4958708;28;20427;-81
2023/06/12 04:57:36;;;;;;;24.83;9.80;;;;;;;40.02;34.48;101270.91;4974866;28;20433;-81
2023/06/12 05:00:06;;;;;;;15.97;9.23;;;;;;;40.09;33.80;101273.25;4974682;28;20430;-81
2023/06/12 05:02:33;;;;;;;25.43;11.13;;;;;;;39.95;34.48;101278.72;4974563;28;20429;-81
2023/06/12 05:05:00;;;;;;;23.33;10.00;;;;;;;39.91;33.72;101277.75;4976198;28;20531;-81
2023/06/12 05:07:27;;;;;;;28.67;12.40;;;;;;;39.87;34.14;101282.97;4958045;28;20474;-81
2023/06/12 05:09:53;;;;;;;19.53;9.80;;;;;;;39.90;34.05;101286.97;4975975;28;20399;-80
2023/06/12 05:12:19;;;;;;;18.33;11.07;;;;;;;40.00;34.14;101290.25;4974460;28;20429;-81
2023/06/12 05:14:45;;;;;;;13.93;9.67;;;;;;;39.90;34.21;101293.25;4975933;28;20441;-83
2023/06/12 05:17:11;;;;;;;19.87;10.50;;;;;;;39.93;33.52;101292.59;4974333;28;20520;-83
2023/06/12 05:19:40;;;;;;;19.80;10.77;;;;;;;40.06;33.48;101298.31;4975875;28;20867;-83
2023/06/12 05:22:06;;;;;;;27.73;14.10;;;;;;;40.00;34.13;101297.59;4975707;28;20908;-81
2023/06/12 05:24:33;;;;;;;16.73;11.00;;;;;;;39.99;33.66;101302.25;4958147;28;20451;-80
2023/06/12 05:27:00;;;;;;;20.53;10.00;;;;;;;39.89;33.95;101298.97;4957842;28;20472;-80
2023/06/12 05:29:26;;;;;;;30.43;12.57;;;;;;;40.09;33.95;101305.84;4958072;28;20442;-80
2023/06/12 05:31:52;;;;;;;15.27;9.33;;;;;;;40.13;33.84;101296.75;4974091;28;20430;-81
2023/06/12 05:34:19;;;;;;;24.10;11.73;;;;;;;40.14;33.84;101306.50;4956937;28;20903;-81
2023/06/12 05:36:44;;;;;;;23.50;12.67;;;;;;;40.12;34.03;101307.94;4963388;28;20837;-81
2023/06/12 05:39:11;;;;;;;17.63;12.83;;;;;;;40.08;34.17;101310.47;4960831;28;20906;-80
2023/06/12 05:41:37;;;;;;;20.23;12.00;;;;;;;39.94;34.26;101307.00;4962078;28;20412;-81
2023/06/12 05:44:03;;;;;;;20.43;10.33;;;;;;;39.94;34.20;101313.22;4954587;29;20978;-80
2023/06/12 05:46:29;;;;;;;22.30;11.33;;;;;;;39.90;33.85;101308.72;4954369;29;20822;-81
2023/06/12 05:48:57;;;;;;;24.23;11.50;;;;;;;40.00;33.75;101305.75;4954425;29;20455;-80
2023/06/12 05:51:24;;;;;;;21.40;12.37;;;;;;;39.95;34.09;101314.03;4954380;29;20419;-81
2023/06/12 05:53:50;;;;;;;23.43;11.10;;;;;;;39.96;33.80;101308.31;4954374;29;20426;-80
2023/06/12 05:56:16;;;;;;;20.10;12.93;;;;;;;40.12;33.99;101316.88;4954818;28;20423;-82
2023/06/12 05:58:44;;;;;;;23.67;13.10;;;;;;;40.11;34.36;101323.44;4955820;29;20531;-82
2023/06/12 06:01:11;;;;;;;24.17;10.43;;;;;;;40.18;34.01;101331.16;4983081;28;20237;-81
2023/06/12 06:03:45;;;;;;;29.33;11.70;;;;;;;40.05;34.31;101332.84;4981705;28;20418;-82
2023/06/12 06:06:15;;;;;;;18.77;9.70;;;;;;;39.95;33.95;101335.75;4985776;28;20937;-86
2023/06/12 06:08:41;;;;;;;18.33;10.60;;;;;;;40.23;33.54;101341.91;4986633;28;20493;-82
2023/06/12 06:11:08;;;;;;;16.60;10.20;;;;;;;40.18;33.33;101339.31;4984756;28;20418;-79
2023/06/12 06:13:34;;;;;;;25.03;12.10;;;;;;;40.09;33.98;101339.25;4975406;28;20422;-80
2023/06/12 06:16:01;;;;;;;21.70;10.67;;;;;;;40.08;33.69;101342.25;4973507;28;20489;-80
2023/06/12 06:18:28;;;;;;;19.97;10.40;;;;;;;40.15;33.76;101345.38;4975962;28;20411;-79
2023/06/12 06:20:54;;;;;;;16.40;10.83;;;;;;;40.21;33.57;101344.13;4982049;28;20419;-80
2023/06/12 06:23:21;;;;;;;17.63;9.10;;;;;;;40.21;33.68;101352.28;4989628;28;20430;-82
2023/06/12 06:25:48;;;;;;;18.90;10.97;;;;;;;40.14;33.59;101352.69;4994129;28;20493;-82
2023/06/12 06:28:14;;;;;;;18.63;9.87;;;;;;;40.30;33.29;101353.13;4975896;28;20500;-84
2023/06/12 06:30:40;;;;;;;20.50;10.07;;;;;;;40.40;33.47;101358.31;4995465;28;20521;-85
2023/06/12 06:33:06;;;;;;;22.70;11.37;;;;;;;40.32;33.65;101360.97;4960103;28;20438;-85
2023/06/12 06:35:32;;;;;;;27.00;14.80;;;;;;;40.10;33.62;101359.88;4972569;28;20478;-79
2023/06/12 06:37:58;;;;;;;21.80;12.07;;;;;;;40.17;33.81;101364.88;4974528;28;20399;-83
2023/06/12 06:40:25;;;;;;;15.67;12.20;;;;;;;40.26;33.89;101371.97;4972037;28;20858;-83
2023/06/12 06:42:52;;;;;;;24.43;12.00;;;;;;;40.26;33.67;101373.88;4959633;28;20289;-83
2023/06/12 06:45:19;;;;;;;18.60;11.73;;;;;;;40.37;33.65;101377.16;4964660;28;20838;-82
2023/06/12 06:47:45;;;;;;;14.70;10.00;;;;;;;40.17;33.42;101375.75;4948159;28;20463;-82
2023/06/12 06:50:12;;;;;;;22.03;11.17;;;;;;;40.17;33.25;101384.72;4962759;28;20505;-85
2023/06/12 06:52:37;;;;;;;26.73;14.47;;;;;;;40.20;33.35;101388.69;4937280;29;20522;-83
2023/06/12 06:55:04;;;;;;;20.67;11.30;;;;;;;40.35;33.61;101392.97;4966704;28;20518;-82
2023/06/12 06:57:30;;;;;;;16.10;10.60;;;;;;;40.39;33.59;101402.94;4961549;28;20951;-83
2023/06/12 06:59:57;;;;;;;19.43;10.73;;;;;;;40.50;33.50;101407.00;4964208;28;20458;-82
2023/06/12 07:02:23;;;;;;;31.00;13.37;;;;;;;40.46;33.65;101410.63;4969819;28;20273;-84
2023/06/12 07:04:50;;;;;;;20.10;12.97;;;;;;;40.57;33.63;101411.19;4972514;28;20513;-84
2023/06/12 07:07:16;;;;;;;18.40;11.33;;;;;;;40.45;33.42;101403.56;4972491;28;20970;-87
2023/06/12 07:09:42;;;;;;;21.40;10.33;;;;;;;40.30;33.67;101404.78;4972976;28;20469;-87
2023/06/12 07:12:08;;;;;;;20.73;13.07;;;;;;;40.29;33.56;101414.03;4969363;28;20454;-87
2023/06/12 07:14:34;;;;;;;18.00;10.90;;;;;;;40.37;33.34;101421.44;4970269;28;20189;-88
2023/06/12 07:17:00;;;;;;;18.37;11.50;;;;;;;40.37;33.29;101423.34;4972282;28;20418;-87
2023/06/12 07:19:26;;;;;;;16.17;10.53;;;;;;;40.36;32.98;101429.91;4969024;28;20435;-86
2023/06/12 07:21:52;;;;;;;21.90;11.33;;;;;;;40.37;33.65;101428.78;4962300;28;20762;-86
2023/06/12 07:24:18;;;;;;;15.00;10.03;;;;;;;40.23;34.14;101420.72;4973695;28;20533;-88
2023/06/12 07:26:44;;;;;;;22.40;11.20;;;;;;;40.40;33.47;101418.13;4972717;28;20190;-88
2023/06/12 07:29:10;;;;;;;17.13;10.90;;;;;;;40.33;33.16;101435.97;4972594;28;20421;-88
2023/06/12 07:31:36;;;;;;;23.20;13.17;;;;;;;40.37;33.45;101432.31;4973549;28;20441;-86
2023/06/12 07:34:03;;;;;;;17.23;11.40;;;;;;;40.23;33.17;101432.38;4973352;28;20430;-86
2023/06/12 07:36:31;;;;;;;21.33;13.77;;;;;;;40.40;32.83;101449.94;4964267;28;20490;-86
2023/06/12 07:38:57;;;;;;;16.43;9.27;;;;;;;40.47;33.28;101453.84;4966248;28;20439;-86
2023/06/12 07:41:23;;;;;;;20.07;12.00;;;;;;;40.57;33.47;101455.50;4964745;28;20815;-86
2023/06/12 07:43:49;;;;;;;27.13;11.10;;;;;;;40.57;33.00;101458.22;4965920;28;20986;-87
2023/06/12 07:46:16;;;;;;;25.17;11.67;;;;;;;40.38;32.97;101463.81;4975238;28;20450;-88
2023/06/12 07:48:42;;;;;;;19.57;10.90;;;;;;;40.44;33.37;101468.03;4975158;28;20465;-86
2023/06/12 07:51:08;;;;;;;16.73;10.30;;;;;;;40.62;33.28;101473.63;4965678;28;20426;-85
2023/06/12 07:53:34;;;;;;;20.50;10.57;;;;;;;40.52;33.46;101467.34;4967786;28;20443;-85
2023/06/12 07:56:03;;;;;;;19.27;9.60;;;;;;;40.45;33.39;101471.53;4972936;28;20493;-84
2023/06/12 07:58:31;;;;;;;23.23;10.20;;;;;;;40.53;33.31;101476.28;4965429;28;20923;-85
2023/06/12 08:00:56;;;;;;;21.00;12.23;;;;;;;40.59;33.51;101477.78;4982151;28;20879;-86
2023/06/12 08:03:25;;;;;;;17.90;11.53;;;;;;;40.65;33.60;101483.88;4966438;28;20502;-86
2023/06/12 08:05:54;;;;;;;19.13;11.37;;;;;;;40.78;33.45;101486.53;4970001;28;20432;-86
2023/06/12 08:08:21;;;;;;;30.73;14.17;;;;;;;40.87;33.42;101491.19;4975439;28;20827;-86
2023/06/12 08:10:47;;;;;;;25.63;12.00;;;;;;;40.82;33.04;101489.41;4974631;28;20437;-77
2023/06/12 08:13:13;;;;;;;29.07;11.27;;;;;;;40.59;33.11;101491.38;4980843;28;20418;-85
2023/06/12 08:15:39;;;;;;;21.87;9.83;;;;;;;40.71;34.11;101493.53;4950843;28;20538;-83
2023/06/12 08:18:05;;;;;;;19.57;9.70;;;;;;;40.81;33.14;101491.31;4974909;28;20410;-82
2023/06/12 08:20:31;;;;;;;18.87;8.47;;;;;;;40.87;32.65;101496.63;4957471;28;20333;-81
2023/06/12 08:22:57;;;;;;;21.07;9.83;;;;;;;40.85;32.43;101493.44;4955843;28;20430;-83
2023/06/12 08:25:24;;;;;;;14.97;10.70;;;;;;;40.76;32.67;101494.19;4940083;29;20415;-83
2023/06/12 08:27:49;;;;;;;18.40;11.57;;;;;;;40.83;32.69;101495.69;4955951;29;20199;-83
2023/06/12 08:30:16;;;;;;;17.30;10.60;;;;;;;40.78;33.18;101493.88;4955984;29;20457;-83
2023/06/12 08:32:42;;;;;;;17.67;10.50;;;;;;;40.84;32.73;101508.97;4940173;29;20570;-83
2023/06/12 08:35:08;;;;;;;18.53;10.70;;;;;;;40.64;32.89;101491.25;4957243;29;20474;-83
2023/06/12 08:37:34;;;;;;;18.60;11.37;;;;;;;40.83;32.88;101498.41;4955775;29;20502;-82
2023/06/12 08:40:01;;;;;;;18.23;10.63;;;;;;;40.82;33.16;101505.72;4957455;29;20403;-82
2023/06/12 08:42:27;;;;;;;21.23;9.93;;;;;;;40.87;32.64;101499.34;4954795;28;20806;-81
2023/06/12 08:45:03;;;;;;;14.70;10.43;;;;;;;40.93;32.94;101503.59;4956263;29;20505;-82
2023/06/12 08:47:37;;;;;;;20.23;9.63;;;;;;;40.76;33.18;101507.81;4954915;28;20470;-82
2023/06/12 08:50:04;;;;;;;17.80;9.27;;;;;;;40.97;32.97;101507.28;4957476;28;20449;-82
2023/06/12 08:52:31;;;;;;;17.20;9.67;;;;;;;40.85;32.37;101512.47;4960433;28;20434;-82
2023/06/12 08:54:58;;;;;;;15.80;10.87;;;;;;;40.85;32.80;101512.47;4965128;28;20837;-83
2023/06/12 08:57:26;;;;;;;14.47;9.93;;;;;;;40.91;32.33;101506.63;4968982;28;20422;-84
2023/06/12 08:59:52;;;;;;;16.13;10.43;;;;;;;40.97;32.78;101524.44;4946781;28;20938;-83
2023/06/12 09:02:21;;;;;;;18.73;12.50;;;;;;;41.03;32.91;101515.00;4964851;28;20422;-83
2023/06/12 09:05:06;;;;;;;23.50;10.50;;;;;;;40.97;32.83;101520.91;4964346;28;20254;-82
2023/06/12 09:07:38;;;;;;;18.57;8.70;;;;;;;41.12;32.61;101515.03;4971793;28;20533;-84
2023/06/12 09:10:05;;;;;;;15.27;9.70;;;;;;;40.89;32.72;101524.34;4978599;28;20422;-86
2023/06/12 09:12:30;;;;;;;16.80;10.43;;;;;;;40.90;32.72;101518.63;4945279;28;20562;-86
2023/06/12 09:15:00;;;;;;;18.80;11.00;;;;;;;40.98;32.28;101522.50;4955917;28;20516;-84
2023/06/12 09:17:30;;;;;;;19.10;11.90;;;;;;;41.01;32.70;101530.06;4981673;28;20209;-85
2023/06/12 09:19:56;;;;;;;17.23;9.50;;;;;;;41.12;32.12;101536.00;4965395;28;20425;-86
2023/06/12 09:22:22;;;;;;;18.30;10.70;;;;;;;41.14;33.00;101526.44;4973683;28;20426;-82
2023/06/12 09:24:51;;;;;;;15.07;10.40;;;;;;;40.98;32.77;101519.78;4974341;28;20182;-84
2023/06/12 09:27:21;;;;;;;16.33;11.03;;;;;;;40.95;32.42;101521.22;4974146;28;20683;-84
2023/06/12 09:29:47;;;;;;;17.00;9.13;;;;;;;40.93;32.27;101517.19;4973967;28;20454;-84
2023/06/12 09:32:14;;;;;;;16.17;10.37;;;;;;;40.75;32.69;101518.97;4968221;28;20488;-84
2023/06/12 09:34:49;;;;;;;20.53;9.30;;;;;;;40.71;33.24;101516.09;4977066;28;20652;-85
2023/06/12 09:37:16;;;;;;;15.47;9.93;;;;;;;40.57;33.09;101515.31;4946880;28;20482;-84
2023/06/12 09:39:43;;;;;;;14.53;9.87;;;;;;;40.76;32.51;101505.09;4963465;28;20480;-84
2023/06/12 09:42:13;;;;;;;13.37;9.20;;;;;;;40.93;31.71;101506.31;4964677;28;20418;-84
2023/06/12 09:44:39;;;;;;;18.33;12.07;;;;;;;40.87;32.48;101513.75;4979622;28;20922;-84
2023/06/12 09:47:06;;;;;;;20.43;11.03;;;;;;;40.90;32.23;101509.63;4962907;28;20457;-84
2023/06/12 09:49:33;;;;;;;15.93;9.93;;;;;;;41.04;32.62;101502.22;4965176;28;20426;-85
2023/06/12 09:52:05;;;;;;;15.20;10.80;;;;;;;41.12;32.12;101506.88;4963513;28;20422;-85
2023/06/12 09:54:32;;;;;;;14.37;9.43;;;;;;;40.99;31.86;101503.13;4965978;28;20764;-84
2023/06/12 09:57:06;;;;;;;17.93;9.40;;;;;;;40.98;31.75;101495.28;4963388;28;20462;-85
2023/06/12 09:59:33;;;;;;;18.93;12.57;;;;;;;41.06;32.25;101502.69;4973097;28;20509;-87
2023/06/12 10:02:19;;;;;;;17.07;11.10;;;;;;;41.18;31.88;101504.81;4964543;28;20919;-86
2023/06/12 10:05:01;;;;;;;14.93;10.23;;;;;;;40.89;32.38;101495.22;4945991;28;20422;-85
2023/06/12 10:07:41;;;;;;;22.50;11.77;;;;;;;40.73;32.80;101489.38;4948203;28;20542;-84
2023/06/12 10:10:07;;;;;;;15.73;9.97;;;;;;;41.08;32.17;101498.56;4948223;28;20453;-84
2023/06/12 10:12:35;;;;;;;19.70;11.83;;;;;;;41.11;32.03;101497.13;4948251;28;20505;-86
2023/06/12 10:15:04;;;;;;;17.53;11.13;;;;;;;41.14;31.66;101503.88;4964716;28;20446;-85
2023/06/12 10:17:31;;;;;;;16.13;9.17;;;;;;;41.04;31.98;101502.22;4971373;28;20406;-85
2023/06/12 10:19:57;;;;;;;12.33;9.00;;;;;;;41.18;31.53;101496.66;4973201;28;20454;-86
2023/06/12 10:22:24;;;;;;;19.13;10.03;;;;;;;41.27;31.59;101495.59;4954270;28;20916;-86
2023/06/12 10:24:50;;;;;;;21.70;11.40;;;;;;;41.16;31.75;101502.41;4966125;28;20433;-85
2023/06/12 10:27:18;;;;;;;18.77;9.83;;;;;;;40.85;32.31;101493.44;4972055;28;20454;-84
2023/06/12 10:29:55;;;;;;;18.07;11.10;;;;;;;40.92;32.08;101496.53;4972165;28;20446;-85
2023/06/12 10:32:21;;;;;;;16.83;9.63;;;;;;;41.26;32.02;101495.91;4973008;28;20425;-85
2023/06/12 10:34:48;;;;;;;14.77;9.90;;;;;;;41.08;32.01;101489.59;4973018;28;20505;-81
2023/06/12 10:37:44;;;;;;;17.53;10.57;;;;;;;41.19;32.23;101488.19;4974118;28;20846;-81
2023/06/12 10:40:19;;;;;;;17.27;10.70;;;;;;;41.24;32.50;101489.97;4972777;28;20422;-85
2023/06/12 10:42:54;;;;;;;12.73;9.00;;;;;;;41.38;32.00;101490.69;4972402;28;20961;-84
2023/06/12 10:45:22;;;;;;;17.50;10.73;;;;;;;41.51;31.72;101486.25;4974238;28;20489;-83
2023/06/12 10:48:04;;;;;;;14.90;9.93;;;;;;;41.40;31.85;101482.22;4972563;28;21013;-85
2023/06/12 10:50:31;;;;;;;17.53;10.00;;;;;;;41.44;32.04;101480.47;4972552;28;20874;-86
2023/06/12 10:53:00;;;;;;;19.43;9.67;;;;;;;41.49;32.37;101477.56;4972496;28;20942;-86
2023/06/12 10:55:34;;;;;;;16.33;9.90;;;;;;;41.22;32.31;101468.50;4956405;28;20426;-86
2023/06/12 10:58:03;;;;;;;16.60;10.23;;;;;;;41.40;31.95;101471.31;4956596;28;20415;-86
2023/06/12 11:00:38;;;;;;;14.87;8.47;;;;;;;41.48;31.73;101474.03;4972624;28;20425;-87
2023/06/12 11:03:06;;;;;;;17.17;8.87;;;;;;;41.17;32.15;101474.09;4972811;28;20436;-85
2023/06/12 11:05:33;;;;;;;18.10;9.30;;;;;;;41.37;32.09;101464.56;4965363;28;20429;-86
2023/06/12 11:08:02;;;;;;;17.50;10.20;;;;;;;41.43;31.88;101460.56;4972157;28;20457;-85
2023/06/12 11:10:29;;;;;;;17.73;11.10;;;;;;;41.28;32.24;101452.81;4975653;28;20426;-85
2023/06/12 11:12:55;;;;;;;16.37;8.60;;;;;;;41.28;32.18;101455.56;4993649;28;20402;-87
2023/06/12 11:15:22;;;;;;;13.37;9.60;;;;;;;41.41;32.25;101454.66;4992823;28;20406;-87